sensor_id;sensor_type;location;lat;lon;timestamp;P1;durP1;ratioP1;P2;durP2;ratioP2
75900;SDS011;64577;50.594;5.570;2022-11-27T00:00:30;10.10;;;2.63;;
75900;SDS011;64577;50.594;5.570;2022-11-27T05:20:59;3.38;;;1.20;;
75900;SDS011;64577;50.594;5.570;2022-11-27T05:23:29;4.65;;;1.33;;
75900;SDS011;64577;50.594;5.570;2022-11-27T05:25:58;4.03;;;1.27;;
75900;SDS011;64577;50.594;5.570;2022-11-27T05:28:24;3.88;;;1.33;;
75900;SDS011;64577;50.594;5.570;2022-11-27T05:30:50;3.45;;;1.20;;
75900;SDS011;64577;50.594;5.570;2022-11-27T05:33:16;5.60;;;1.50;;
75900;SDS011;64577;50.594;5.570;2022-11-27T05:35:43;3.83;;;1.70;;
75900;SDS011;64577;50.594;5.570;2022-11-27T05:38:09;4.90;;;1.70;;
75900;SDS011;64577;50.594;5.570;2022-11-27T05:40:35;5.50;;;1.80;;
75900;SDS011;64577;50.594;5.570;2022-11-27T05:43:00;4.57;;;1.60;;
75900;SDS011;64577;50.594;5.570;2022-11-27T05:45:26;4.20;;;1.52;;
75900;SDS011;64577;50.594;5.570;2022-11-27T05:47:51;4.10;;;1.30;;
75900;SDS011;64577;50.594;5.570;2022-11-27T05:50:16;4.68;;;1.55;;
75900;SDS011;64577;50.594;5.570;2022-11-27T05:52:42;4.03;;;1.40;;
75900;SDS011;64577;50.594;5.570;2022-11-27T05:55:07;3.58;;;1.23;;
75900;SDS011;64577;50.594;5.570;2022-11-27T05:57:33;3.75;;;1.45;;
75900;SDS011;64577;50.594;5.570;2022-11-27T05:59:58;2.97;;;1.23;;
75900;SDS011;64577;50.594;5.570;2022-11-27T06:02:24;2.88;;;1.30;;
75900;SDS011;64577;50.594;5.570;2022-11-27T06:04:50;3.65;;;1.65;;
75900;SDS011;64577;50.594;5.570;2022-11-27T06:07:18;3.85;;;1.40;;
75900;SDS011;64577;50.594;5.570;2022-11-27T06:09:43;3.13;;;1.35;;
75900;SDS011;64577;50.594;5.570;2022-11-27T06:12:09;3.60;;;1.30;;
75900;SDS011;64577;50.594;5.570;2022-11-27T06:14:34;4.60;;;1.40;;
75900;SDS011;64577;50.594;5.570;2022-11-27T06:17:00;3.42;;;1.42;;
75900;SDS011;64577;50.594;5.570;2022-11-27T06:19:26;3.85;;;1.30;;
75900;SDS011;64577;50.594;5.570;2022-11-27T06:21:52;3.08;;;1.30;;
75900;SDS011;64577;50.594;5.570;2022-11-27T06:24:17;3.70;;;1.20;;
75900;SDS011;64577;50.594;5.570;2022-11-27T06:26:43;3.33;;;1.30;;
75900;SDS011;64577;50.594;5.570;2022-11-27T06:29:08;4.00;;;1.20;;
75900;SDS011;64577;50.594;5.570;2022-11-27T06:31:34;3.08;;;1.25;;
75900;SDS011;64577;50.594;5.570;2022-11-27T06:34:00;3.63;;;1.30;;
75900;SDS011;64577;50.594;5.570;2022-11-27T06:36:27;2.30;;;1.23;;
75900;SDS011;64577;50.594;5.570;2022-11-27T06:38:55;3.22;;;1.10;;
75900;SDS011;64577;50.594;5.570;2022-11-27T06:41:21;2.75;;;1.30;;
75900;SDS011;64577;50.594;5.570;2022-11-27T06:43:48;3.47;;;1.48;;
75900;SDS011;64577;50.594;5.570;2022-11-27T06:46:16;4.10;;;1.35;;
75900;SDS011;64577;50.594;5.570;2022-11-27T06:48:43;2.72;;;1.20;;
75900;SDS011;64577;50.594;5.570;2022-11-27T06:51:11;4.38;;;1.63;;
75900;SDS011;64577;50.594;5.570;2022-11-27T06:53:38;3.92;;;1.40;;
75900;SDS011;64577;50.594;5.570;2022-11-27T06:56:04;3.38;;;1.20;;
75900;SDS011;64577;50.594;5.570;2022-11-27T06:58:31;3.33;;;1.20;;
75900;SDS011;64577;50.594;5.570;2022-11-27T07:01:00;5.95;;;1.63;;
75900;SDS011;64577;50.594;5.570;2022-11-27T07:03:27;2.85;;;1.27;;
75900;SDS011;64577;50.594;5.570;2022-11-27T07:05:52;4.25;;;1.35;;
75900;SDS011;64577;50.594;5.570;2022-11-27T07:08:18;3.55;;;1.50;;
75900;SDS011;64577;50.594;5.570;2022-11-27T07:10:43;4.13;;;1.58;;
75900;SDS011;64577;50.594;5.570;2022-11-27T07:13:09;4.20;;;1.55;;
75900;SDS011;64577;50.594;5.570;2022-11-27T07:15:34;2.67;;;1.17;;
75900;SDS011;64577;50.594;5.570;2022-11-27T07:18:00;5.28;;;1.60;;
75900;SDS011;64577;50.594;5.570;2022-11-27T07:20:26;3.75;;;1.40;;
75900;SDS011;64577;50.594;5.570;2022-11-27T07:22:51;4.03;;;1.58;;
75900;SDS011;64577;50.594;5.570;2022-11-27T07:25:16;2.92;;;1.30;;
75900;SDS011;64577;50.594;5.570;2022-11-27T07:27:42;2.90;;;1.35;;
75900;SDS011;64577;50.594;5.570;2022-11-27T07:30:07;4.13;;;1.48;;
75900;SDS011;64577;50.594;5.570;2022-11-27T07:32:33;2.90;;;1.70;;
75900;SDS011;64577;50.594;5.570;2022-11-27T07:34:58;4.13;;;1.60;;
75900;SDS011;64577;50.594;5.570;2022-11-27T07:37:24;4.35;;;1.70;;
75900;SDS011;64577;50.594;5.570;2022-11-27T07:39:49;4.45;;;1.75;;
75900;SDS011;64577;50.594;5.570;2022-11-27T07:42:14;3.45;;;1.40;;
75900;SDS011;64577;50.594;5.570;2022-11-27T07:44:40;4.03;;;1.83;;
75900;SDS011;64577;50.594;5.570;2022-11-27T07:47:05;3.40;;;1.40;;
75900;SDS011;64577;50.594;5.570;2022-11-27T07:49:30;5.13;;;1.85;;
75900;SDS011;64577;50.594;5.570;2022-11-27T07:51:56;3.25;;;1.50;;
75900;SDS011;64577;50.594;5.570;2022-11-27T07:54:21;3.55;;;1.40;;
75900;SDS011;64577;50.594;5.570;2022-11-27T07:56:46;4.32;;;1.58;;
75900;SDS011;64577;50.594;5.570;2022-11-27T07:59:12;5.07;;;1.50;;
75900;SDS011;64577;50.594;5.570;2022-11-27T08:01:37;3.65;;;1.60;;
75900;SDS011;64577;50.594;5.570;2022-11-27T08:04:02;3.95;;;1.58;;
75900;SDS011;64577;50.594;5.570;2022-11-27T08:06:28;3.17;;;1.60;;
75900;SDS011;64577;50.594;5.570;2022-11-27T08:08:53;3.80;;;1.67;;
75900;SDS011;64577;50.594;5.570;2022-11-27T08:13:55;5.05;;;1.73;;
75900;SDS011;64577;50.594;5.570;2022-11-27T08:16:21;3.60;;;1.58;;
75900;SDS011;64577;50.594;5.570;2022-11-27T08:18:47;4.72;;;1.70;;
75900;SDS011;64577;50.594;5.570;2022-11-27T08:21:12;4.15;;;1.70;;
75900;SDS011;64577;50.594;5.570;2022-11-27T08:23:38;3.92;;;1.55;;
75900;SDS011;64577;50.594;5.570;2022-11-27T08:26:04;6.07;;;1.90;;
75900;SDS011;64577;50.594;5.570;2022-11-27T08:28:30;5.40;;;1.45;;
75900;SDS011;64577;50.594;5.570;2022-11-27T08:30:57;3.67;;;1.73;;
75900;SDS011;64577;50.594;5.570;2022-11-27T08:33:23;4.47;;;1.50;;
75900;SDS011;64577;50.594;5.570;2022-11-27T08:35:49;3.60;;;1.85;;
75900;SDS011;64577;50.594;5.570;2022-11-27T08:38:14;5.13;;;1.80;;
75900;SDS011;64577;50.594;5.570;2022-11-27T08:40:40;11.43;;;1.98;;
75900;SDS011;64577;50.594;5.570;2022-11-27T08:43:05;9.38;;;1.83;;
75900;SDS011;64577;50.594;5.570;2022-11-27T08:45:30;5.78;;;1.85;;
75900;SDS011;64577;50.594;5.570;2022-11-27T08:47:56;4.18;;;1.77;;
75900;SDS011;64577;50.594;5.570;2022-11-27T08:50:22;5.18;;;1.85;;
75900;SDS011;64577;50.594;5.570;2022-11-27T08:52:47;3.88;;;1.90;;
75900;SDS011;64577;50.594;5.570;2022-11-27T08:55:13;10.88;;;2.00;;
75900;SDS011;64577;50.594;5.570;2022-11-27T08:57:38;4.97;;;1.60;;
75900;SDS011;64577;50.594;5.570;2022-11-27T09:00:04;4.70;;;1.65;;
75900;SDS011;64577;50.594;5.570;2022-11-27T09:02:30;5.63;;;1.60;;
75900;SDS011;64577;50.594;5.570;2022-11-27T09:04:55;4.60;;;1.80;;
75900;SDS011;64577;50.594;5.570;2022-11-27T09:07:20;3.45;;;1.55;;
75900;SDS011;64577;50.594;5.570;2022-11-27T09:09:46;3.53;;;1.67;;
75900;SDS011;64577;50.594;5.570;2022-11-27T09:12:11;4.03;;;1.60;;
75900;SDS011;64577;50.594;5.570;2022-11-27T09:14:37;4.55;;;1.90;;
75900;SDS011;64577;50.594;5.570;2022-11-27T09:17:03;9.93;;;1.92;;
75900;SDS011;64577;50.594;5.570;2022-11-27T09:19:28;12.48;;;2.00;;
75900;SDS011;64577;50.594;5.570;2022-11-27T09:21:53;11.57;;;2.88;;
75900;SDS011;64577;50.594;5.570;2022-11-27T09:24:19;15.02;;;2.05;;
75900;SDS011;64577;50.594;5.570;2022-11-27T09:26:44;6.60;;;2.15;;
75900;SDS011;64577;50.594;5.570;2022-11-27T09:29:09;8.55;;;2.05;;
75900;SDS011;64577;50.594;5.570;2022-11-27T09:31:35;14.35;;;2.40;;
75900;SDS011;64577;50.594;5.570;2022-11-27T09:34:00;7.70;;;2.00;;
75900;SDS011;64577;50.594;5.570;2022-11-27T09:36:25;8.27;;;2.13;;
75900;SDS011;64577;50.594;5.570;2022-11-27T09:38:51;5.57;;;1.80;;
75900;SDS011;64577;50.594;5.570;2022-11-27T09:46:50;10.02;;;2.20;;
75900;SDS011;64577;50.594;5.570;2022-11-27T09:49:19;7.25;;;1.80;;
75900;SDS011;64577;50.594;5.570;2022-11-27T09:51:48;8.20;;;2.40;;
75900;SDS011;64577;50.594;5.570;2022-11-27T09:54:25;9.07;;;2.33;;
75900;SDS011;64577;50.594;5.570;2022-11-27T09:56:55;8.07;;;2.10;;
75900;SDS011;64577;50.594;5.570;2022-11-27T09:59:31;6.43;;;2.13;;
75900;SDS011;64577;50.594;5.570;2022-11-27T10:02:08;7.28;;;2.00;;
75900;SDS011;64577;50.594;5.570;2022-11-27T10:04:40;10.02;;;2.03;;
75900;SDS011;64577;50.594;5.570;2022-11-27T10:10:03;15.13;;;2.15;;
75900;SDS011;64577;50.594;5.570;2022-11-27T10:15:41;13.00;;;2.58;;
75900;SDS011;64577;50.594;5.570;2022-11-27T10:18:33;10.30;;;1.90;;
75900;SDS011;64577;50.594;5.570;2022-11-27T10:21:09;7.75;;;2.00;;
75900;SDS011;64577;50.594;5.570;2022-11-27T10:23:45;5.15;;;2.00;;
75900;SDS011;64577;50.594;5.570;2022-11-27T10:29:10;7.70;;;1.80;;
75900;SDS011;64577;50.594;5.570;2022-11-27T10:31:38;5.72;;;2.00;;
75900;SDS011;64577;50.594;5.570;2022-11-27T10:34:23;4.57;;;1.75;;
75900;SDS011;64577;50.594;5.570;2022-11-27T10:36:54;5.20;;;1.80;;
75900;SDS011;64577;50.594;5.570;2022-11-27T10:39:41;4.10;;;1.90;;
75900;SDS011;64577;50.594;5.570;2022-11-27T10:44:48;4.53;;;1.95;;
75900;SDS011;64577;50.594;5.570;2022-11-27T10:47:16;6.13;;;1.80;;
75900;SDS011;64577;50.594;5.570;2022-11-27T10:49:45;3.67;;;1.50;;
75900;SDS011;64577;50.594;5.570;2022-11-27T10:52:12;5.20;;;1.83;;
75900;SDS011;64577;50.594;5.570;2022-11-27T10:54:40;3.88;;;1.70;;
75900;SDS011;64577;50.594;5.570;2022-11-27T10:57:11;6.38;;;1.88;;
75900;SDS011;64577;50.594;5.570;2022-11-27T11:00:02;3.60;;;1.57;;
75900;SDS011;64577;50.594;5.570;2022-11-27T11:02:35;3.67;;;1.60;;
75900;SDS011;64577;50.594;5.570;2022-11-27T11:05:08;4.05;;;1.85;;
75900;SDS011;64577;50.594;5.570;2022-11-27T11:07:52;3.97;;;1.70;;
75900;SDS011;64577;50.594;5.570;2022-11-27T11:10:32;3.65;;;1.45;;
75900;SDS011;64577;50.594;5.570;2022-11-27T11:13:16;5.63;;;1.83;;
75900;SDS011;64577;50.594;5.570;2022-11-27T11:15:54;18.70;;;2.70;;
75900;SDS011;64577;50.594;5.570;2022-11-27T11:18:41;11.93;;;2.00;;
75900;SDS011;64577;50.594;5.570;2022-11-27T11:21:18;8.35;;;1.75;;
75900;SDS011;64577;50.594;5.570;2022-11-27T11:24:20;7.53;;;1.83;;
75900;SDS011;64577;50.594;5.570;2022-11-27T11:26:47;13.48;;;2.28;;
75900;SDS011;64577;50.594;5.570;2022-11-27T11:31:54;9.30;;;1.85;;
75900;SDS011;64577;50.594;5.570;2022-11-27T11:34:22;8.35;;;2.15;;
75900;SDS011;64577;50.594;5.570;2022-11-27T11:36:54;8.50;;;2.42;;
75900;SDS011;64577;50.594;5.570;2022-11-27T11:39:25;10.55;;;2.33;;
75900;SDS011;64577;50.594;5.570;2022-11-27T11:41:53;7.68;;;2.28;;
75900;SDS011;64577;50.594;5.570;2022-11-27T11:44:22;6.35;;;1.88;;
75900;SDS011;64577;50.594;5.570;2022-11-27T11:46:59;15.15;;;2.80;;
75900;SDS011;64577;50.594;5.570;2022-11-27T11:49:26;9.05;;;2.67;;
75900;SDS011;64577;50.594;5.570;2022-11-27T12:00:40;15.52;;;2.50;;
75900;SDS011;64577;50.594;5.570;2022-11-27T12:05:40;17.08;;;2.03;;
75900;SDS011;64577;50.594;5.570;2022-11-27T12:10:57;6.13;;;2.13;;
75900;SDS011;64577;50.594;5.570;2022-11-27T12:16:56;11.87;;;2.77;;
75900;SDS011;64577;50.594;5.570;2022-11-27T12:42:40;6.50;;;2.00;;
75900;SDS011;64577;50.594;5.570;2022-11-27T12:45:32;6.65;;;2.00;;
75900;SDS011;64577;50.594;5.570;2022-11-27T12:48:45;8.25;;;1.75;;
75900;SDS011;64577;50.594;5.570;2022-11-27T12:51:07;6.18;;;1.92;;
75900;SDS011;64577;50.594;5.570;2022-11-27T12:53:43;8.03;;;1.90;;
75900;SDS011;64577;50.594;5.570;2022-11-27T12:58:44;5.55;;;1.85;;
75900;SDS011;64577;50.594;5.570;2022-11-27T13:01:14;5.00;;;2.08;;
75900;SDS011;64577;50.594;5.570;2022-11-27T13:06:30;6.78;;;2.03;;
75900;SDS011;64577;50.594;5.570;2022-11-27T13:09:06;5.72;;;2.00;;
75900;SDS011;64577;50.594;5.570;2022-11-27T13:11:38;6.93;;;2.03;;
75900;SDS011;64577;50.594;5.570;2022-11-27T13:14:11;6.60;;;1.90;;
75900;SDS011;64577;50.594;5.570;2022-11-27T13:16:41;6.50;;;2.13;;
75900;SDS011;64577;50.594;5.570;2022-11-27T13:21:47;5.72;;;2.00;;
75900;SDS011;64577;50.594;5.570;2022-11-27T13:24:14;5.95;;;2.08;;
75900;SDS011;64577;50.594;5.570;2022-11-27T13:26:44;4.35;;;1.92;;
75900;SDS011;64577;50.594;5.570;2022-11-27T13:29:30;6.93;;;2.17;;
75900;SDS011;64577;50.594;5.570;2022-11-27T13:32:03;5.65;;;2.10;;
75900;SDS011;64577;50.594;5.570;2022-11-27T13:34:31;8.27;;;2.10;;
75900;SDS011;64577;50.594;5.570;2022-11-27T13:37:05;4.78;;;1.80;;
75900;SDS011;64577;50.594;5.570;2022-11-27T13:39:33;6.65;;;2.15;;
75900;SDS011;64577;50.594;5.570;2022-11-27T13:42:13;4.90;;;1.80;;
75900;SDS011;64577;50.594;5.570;2022-11-27T13:44:50;4.35;;;2.08;;
75900;SDS011;64577;50.594;5.570;2022-11-27T13:47:24;6.53;;;2.00;;
75900;SDS011;64577;50.594;5.570;2022-11-27T13:50:02;10.70;;;2.38;;
75900;SDS011;64577;50.594;5.570;2022-11-27T13:52:31;7.22;;;1.85;;
75900;SDS011;64577;50.594;5.570;2022-11-27T13:54:58;6.80;;;2.20;;
75900;SDS011;64577;50.594;5.570;2022-11-27T13:57:25;4.50;;;1.95;;
75900;SDS011;64577;50.594;5.570;2022-11-27T13:59:53;5.25;;;1.92;;
75900;SDS011;64577;50.594;5.570;2022-11-27T14:02:19;4.82;;;1.98;;
75900;SDS011;64577;50.594;5.570;2022-11-27T14:04:48;5.32;;;2.20;;
75900;SDS011;64577;50.594;5.570;2022-11-27T14:07:15;5.67;;;2.30;;
75900;SDS011;64577;50.594;5.570;2022-11-27T14:09:43;6.18;;;2.20;;
75900;SDS011;64577;50.594;5.570;2022-11-27T14:12:12;5.32;;;2.30;;
75900;SDS011;64577;50.594;5.570;2022-11-27T14:14:41;5.38;;;2.00;;
75900;SDS011;64577;50.594;5.570;2022-11-27T14:17:21;5.53;;;2.20;;
75900;SDS011;64577;50.594;5.570;2022-11-27T14:19:57;5.28;;;2.10;;
75900;SDS011;64577;50.594;5.570;2022-11-27T14:22:33;6.28;;;2.50;;
75900;SDS011;64577;50.594;5.570;2022-11-27T14:27:49;5.00;;;2.38;;
75900;SDS011;64577;50.594;5.570;2022-11-27T14:30:23;3.67;;;1.98;;
75900;SDS011;64577;50.594;5.570;2022-11-27T14:32:53;7.57;;;2.10;;
75900;SDS011;64577;50.594;5.570;2022-11-27T14:35:19;5.43;;;2.40;;
75900;SDS011;64577;50.594;5.570;2022-11-27T14:37:46;4.95;;;2.00;;
75900;SDS011;64577;50.594;5.570;2022-11-27T14:40:17;4.57;;;2.08;;
75900;SDS011;64577;50.594;5.570;2022-11-27T14:42:47;4.80;;;1.90;;
75900;SDS011;64577;50.594;5.570;2022-11-27T14:45:14;5.82;;;1.98;;
75900;SDS011;64577;50.594;5.570;2022-11-27T14:47:45;4.70;;;2.13;;
75900;SDS011;64577;50.594;5.570;2022-11-27T14:50:14;4.32;;;1.98;;
75900;SDS011;64577;50.594;5.570;2022-11-27T14:52:44;5.65;;;2.10;;
75900;SDS011;64577;50.594;5.570;2022-11-27T14:55:15;4.30;;;2.00;;
75900;SDS011;64577;50.594;5.570;2022-11-27T14:57:41;4.18;;;2.05;;
75900;SDS011;64577;50.594;5.570;2022-11-27T15:00:21;3.72;;;1.98;;
75900;SDS011;64577;50.594;5.570;2022-11-27T15:02:49;5.22;;;1.98;;
75900;SDS011;64577;50.594;5.570;2022-11-27T15:05:16;4.90;;;2.03;;
75900;SDS011;64577;50.594;5.570;2022-11-27T15:07:42;5.00;;;2.17;;
75900;SDS011;64577;50.594;5.570;2022-11-27T15:10:14;4.57;;;2.03;;
75900;SDS011;64577;50.594;5.570;2022-11-27T15:12:45;4.20;;;1.90;;
75900;SDS011;64577;50.594;5.570;2022-11-27T15:15:22;5.45;;;2.20;;
75900;SDS011;64577;50.594;5.570;2022-11-27T15:17:52;6.10;;;2.42;;
75900;SDS011;64577;50.594;5.570;2022-11-27T15:20:22;4.47;;;2.20;;
75900;SDS011;64577;50.594;5.570;2022-11-27T15:22:53;5.22;;;2.08;;
75900;SDS011;64577;50.594;5.570;2022-11-27T15:25:37;4.45;;;2.15;;
75900;SDS011;64577;50.594;5.570;2022-11-27T15:36:23;7.10;;;2.42;;
75900;SDS011;64577;50.594;5.570;2022-11-27T15:38:48;5.10;;;2.50;;
75900;SDS011;64577;50.594;5.570;2022-11-27T15:43:49;7.80;;;2.80;;
75900;SDS011;64577;50.594;5.570;2022-11-27T15:46:16;16.60;;;3.08;;
75900;SDS011;64577;50.594;5.570;2022-11-27T15:48:47;9.57;;;2.85;;
75900;SDS011;64577;50.594;5.570;2022-11-27T15:51:13;15.20;;;3.40;;
75900;SDS011;64577;50.594;5.570;2022-11-27T15:53:38;10.75;;;3.38;;
75900;SDS011;64577;50.594;5.570;2022-11-27T15:56:03;8.50;;;3.22;;
75900;SDS011;64577;50.594;5.570;2022-11-27T15:58:29;7.63;;;3.10;;
75900;SDS011;64577;50.594;5.570;2022-11-27T16:00:55;7.88;;;2.97;;
75900;SDS011;64577;50.594;5.570;2022-11-27T16:03:20;12.52;;;3.60;;
75900;SDS011;64577;50.594;5.570;2022-11-27T16:05:46;9.55;;;4.30;;
75900;SDS011;64577;50.594;5.570;2022-11-27T16:08:11;9.23;;;3.70;;
75900;SDS011;64577;50.594;5.570;2022-11-27T16:10:40;9.57;;;3.55;;
75900;SDS011;64577;50.594;5.570;2022-11-27T16:13:06;9.68;;;3.40;;
75900;SDS011;64577;50.594;5.570;2022-11-27T16:15:32;8.60;;;3.58;;
75900;SDS011;64577;50.594;5.570;2022-11-27T16:17:57;6.95;;;3.47;;
75900;SDS011;64577;50.594;5.570;2022-11-27T16:20:23;7.85;;;3.85;;
75900;SDS011;64577;50.594;5.570;2022-11-27T16:22:48;10.25;;;3.60;;
75900;SDS011;64577;50.594;5.570;2022-11-27T16:25:14;12.73;;;3.92;;
75900;SDS011;64577;50.594;5.570;2022-11-27T16:27:39;9.07;;;3.58;;
75900;SDS011;64577;50.594;5.570;2022-11-27T16:30:04;20.33;;;4.22;;
75900;SDS011;64577;50.594;5.570;2022-11-27T16:32:30;11.40;;;3.85;;
75900;SDS011;64577;50.594;5.570;2022-11-27T16:34:56;7.53;;;4.05;;
75900;SDS011;64577;50.594;5.570;2022-11-27T16:37:21;14.95;;;3.95;;
75900;SDS011;64577;50.594;5.570;2022-11-27T16:39:47;10.15;;;3.95;;
75900;SDS011;64577;50.594;5.570;2022-11-27T16:42:12;11.05;;;3.35;;
75900;SDS011;64577;50.594;5.570;2022-11-27T16:44:37;16.80;;;3.25;;
75900;SDS011;64577;50.594;5.570;2022-11-27T16:47:03;9.98;;;3.75;;
75900;SDS011;64577;50.594;5.570;2022-11-27T16:49:29;11.23;;;3.45;;
75900;SDS011;64577;50.594;5.570;2022-11-27T16:51:54;8.95;;;3.95;;
75900;SDS011;64577;50.594;5.570;2022-11-27T16:54:19;6.68;;;3.00;;
75900;SDS011;64577;50.594;5.570;2022-11-27T16:56:46;10.15;;;3.50;;
75900;SDS011;64577;50.594;5.570;2022-11-27T16:59:13;6.53;;;3.15;;
75900;SDS011;64577;50.594;5.570;2022-11-27T17:01:39;7.47;;;3.70;;
75900;SDS011;64577;50.594;5.570;2022-11-27T17:04:06;13.07;;;4.25;;
75900;SDS011;64577;50.594;5.570;2022-11-27T17:06:33;7.97;;;3.70;;
75900;SDS011;64577;50.594;5.570;2022-11-27T17:09:01;7.53;;;3.58;;
75900;SDS011;64577;50.594;5.570;2022-11-27T17:11:30;9.50;;;3.00;;
75900;SDS011;64577;50.594;5.570;2022-11-27T17:13:58;8.57;;;3.20;;
75900;SDS011;64577;50.594;5.570;2022-11-27T17:16:25;8.27;;;3.05;;
75900;SDS011;64577;50.594;5.570;2022-11-27T17:18:50;10.38;;;3.42;;
75900;SDS011;64577;50.594;5.570;2022-11-27T17:21:17;8.90;;;3.25;;
75900;SDS011;64577;50.594;5.570;2022-11-27T17:23:55;7.47;;;3.67;;
75900;SDS011;64577;50.594;5.570;2022-11-27T17:26:22;7.80;;;3.08;;
75900;SDS011;64577;50.594;5.570;2022-11-27T17:28:48;6.13;;;3.13;;
75900;SDS011;64577;50.594;5.570;2022-11-27T17:31:16;6.95;;;3.28;;
75900;SDS011;64577;50.594;5.570;2022-11-27T17:33:46;5.50;;;3.10;;
75900;SDS011;64577;50.594;5.570;2022-11-27T17:36:11;5.10;;;2.80;;
75900;SDS011;64577;50.594;5.570;2022-11-27T17:38:37;6.25;;;3.42;;
75900;SDS011;64577;50.594;5.570;2022-11-27T17:41:04;5.45;;;2.70;;
75900;SDS011;64577;50.594;5.570;2022-11-27T17:43:32;5.97;;;3.10;;
75900;SDS011;64577;50.594;5.570;2022-11-27T17:45:58;5.45;;;3.00;;
75900;SDS011;64577;50.594;5.570;2022-11-27T17:48:24;4.88;;;3.20;;
75900;SDS011;64577;50.594;5.570;2022-11-27T17:50:50;5.65;;;3.10;;
75900;SDS011;64577;50.594;5.570;2022-11-27T17:53:16;5.38;;;3.00;;
75900;SDS011;64577;50.594;5.570;2022-11-27T17:55:41;5.78;;;3.13;;
75900;SDS011;64577;50.594;5.570;2022-11-27T17:58:06;5.88;;;2.80;;
75900;SDS011;64577;50.594;5.570;2022-11-27T18:00:32;5.03;;;2.60;;
75900;SDS011;64577;50.594;5.570;2022-11-27T18:02:59;5.35;;;2.85;;
75900;SDS011;64577;50.594;5.570;2022-11-27T18:05:25;4.47;;;2.60;;
75900;SDS011;64577;50.594;5.570;2022-11-27T18:07:50;5.90;;;3.00;;
75900;SDS011;64577;50.594;5.570;2022-11-27T18:10:16;5.50;;;2.80;;
75900;SDS011;64577;50.594;5.570;2022-11-27T18:12:42;6.82;;;2.63;;
75900;SDS011;64577;50.594;5.570;2022-11-27T18:15:08;4.63;;;2.70;;
75900;SDS011;64577;50.594;5.570;2022-11-27T18:17:34;5.00;;;2.60;;
75900;SDS011;64577;50.594;5.570;2022-11-27T18:20:00;5.07;;;2.53;;
75900;SDS011;64577;50.594;5.570;2022-11-27T18:22:25;5.68;;;2.83;;
75900;SDS011;64577;50.594;5.570;2022-11-27T18:24:51;5.38;;;2.58;;
75900;SDS011;64577;50.594;5.570;2022-11-27T18:27:17;4.65;;;2.60;;
75900;SDS011;64577;50.594;5.570;2022-11-27T18:29:42;5.45;;;2.85;;
75900;SDS011;64577;50.594;5.570;2022-11-27T18:32:09;4.97;;;2.55;;
75900;SDS011;64577;50.594;5.570;2022-11-27T18:34:35;5.30;;;2.80;;
75900;SDS011;64577;50.594;5.570;2022-11-27T18:37:00;5.30;;;2.95;;
75900;SDS011;64577;50.594;5.570;2022-11-27T18:39:26;6.43;;;2.72;;
75900;SDS011;64577;50.594;5.570;2022-11-27T18:41:52;4.90;;;2.60;;
75900;SDS011;64577;50.594;5.570;2022-11-27T18:44:17;5.25;;;2.60;;
75900;SDS011;64577;50.594;5.570;2022-11-27T18:46:42;5.10;;;2.63;;
75900;SDS011;64577;50.594;5.570;2022-11-27T18:49:08;5.18;;;2.50;;
75900;SDS011;64577;50.594;5.570;2022-11-27T18:51:33;6.63;;;2.88;;
75900;SDS011;64577;50.594;5.570;2022-11-27T18:53:59;5.53;;;2.40;;
75900;SDS011;64577;50.594;5.570;2022-11-27T18:56:25;5.10;;;2.47;;
75900;SDS011;64577;50.594;5.570;2022-11-27T18:58:53;4.60;;;2.45;;
75900;SDS011;64577;50.594;5.570;2022-11-27T19:01:23;5.30;;;2.70;;
75900;SDS011;64577;50.594;5.570;2022-11-27T19:03:51;5.35;;;2.92;;
75900;SDS011;64577;50.594;5.570;2022-11-27T19:06:18;6.40;;;2.90;;
75900;SDS011;64577;50.594;5.570;2022-11-27T19:08:45;4.70;;;2.60;;
75900;SDS011;64577;50.594;5.570;2022-11-27T19:11:15;4.45;;;2.25;;
75900;SDS011;64577;50.594;5.570;2022-11-27T19:13:43;4.70;;;2.42;;
75900;SDS011;64577;50.594;5.570;2022-11-27T19:16:16;6.35;;;2.40;;
75900;SDS011;64577;50.594;5.570;2022-11-27T19:18:48;5.35;;;2.70;;
75900;SDS011;64577;50.594;5.570;2022-11-27T19:21:18;5.28;;;2.40;;
75900;SDS011;64577;50.594;5.570;2022-11-27T19:23:46;4.95;;;2.38;;
75900;SDS011;64577;50.594;5.570;2022-11-27T19:26:14;6.47;;;2.97;;
75900;SDS011;64577;50.594;5.570;2022-11-27T19:28:42;6.13;;;2.42;;
75900;SDS011;64577;50.594;5.570;2022-11-27T19:31:10;4.80;;;2.35;;
75900;SDS011;64577;50.594;5.570;2022-11-27T19:33:37;5.15;;;2.42;;
75900;SDS011;64577;50.594;5.570;2022-11-27T19:36:04;4.78;;;2.53;;
75900;SDS011;64577;50.594;5.570;2022-11-27T19:38:32;6.40;;;2.58;;
75900;SDS011;64577;50.594;5.570;2022-11-27T19:40:58;5.78;;;3.00;;
75900;SDS011;64577;50.594;5.570;2022-11-27T19:43:24;4.65;;;2.30;;
75900;SDS011;64577;50.594;5.570;2022-11-27T19:45:49;5.57;;;2.47;;
75900;SDS011;64577;50.594;5.570;2022-11-27T19:48:15;6.25;;;2.50;;
75900;SDS011;64577;50.594;5.570;2022-11-27T19:50:40;6.18;;;2.70;;
75900;SDS011;64577;50.594;5.570;2022-11-27T19:53:06;4.35;;;2.22;;
75900;SDS011;64577;50.594;5.570;2022-11-27T19:55:32;5.00;;;2.50;;
75900;SDS011;64577;50.594;5.570;2022-11-27T19:57:58;5.68;;;2.50;;
75900;SDS011;64577;50.594;5.570;2022-11-27T20:00:24;4.70;;;2.40;;
75900;SDS011;64577;50.594;5.570;2022-11-27T20:02:50;6.07;;;2.33;;
75900;SDS011;64577;50.594;5.570;2022-11-27T20:05:16;4.43;;;2.13;;
75900;SDS011;64577;50.594;5.570;2022-11-27T20:07:42;4.28;;;2.20;;
75900;SDS011;64577;50.594;5.570;2022-11-27T20:10:07;5.40;;;2.20;;
75900;SDS011;64577;50.594;5.570;2022-11-27T20:12:33;4.20;;;2.13;;
75900;SDS011;64577;50.594;5.570;2022-11-27T20:15:08;4.35;;;2.10;;
75900;SDS011;64577;50.594;5.570;2022-11-27T20:17:40;12.27;;;2.70;;
75900;SDS011;64577;50.594;5.570;2022-11-27T20:20:06;9.07;;;2.85;;
75900;SDS011;64577;50.594;5.570;2022-11-27T20:22:32;4.88;;;1.92;;
75900;SDS011;64577;50.594;5.570;2022-11-27T20:24:58;9.65;;;2.92;;
75900;SDS011;64577;50.594;5.570;2022-11-27T20:27:23;13.68;;;2.58;;
75900;SDS011;64577;50.594;5.570;2022-11-27T20:29:49;14.10;;;2.13;;
75900;SDS011;64577;50.594;5.570;2022-11-27T20:32:14;6.10;;;2.05;;
75900;SDS011;64577;50.594;5.570;2022-11-27T20:34:40;4.50;;;2.15;;
75900;SDS011;64577;50.594;5.570;2022-11-27T20:37:05;15.43;;;2.55;;
75900;SDS011;64577;50.594;5.570;2022-11-27T20:39:31;20.73;;;2.60;;
75900;SDS011;64577;50.594;5.570;2022-11-27T20:41:56;10.65;;;2.40;;
75900;SDS011;64577;50.594;5.570;2022-11-27T20:44:23;8.00;;;2.30;;
75900;SDS011;64577;50.594;5.570;2022-11-27T20:46:49;9.70;;;1.90;;
75900;SDS011;64577;50.594;5.570;2022-11-27T20:49:14;8.23;;;2.35;;
75900;SDS011;64577;50.594;5.570;2022-11-27T20:51:40;7.47;;;2.10;;
75900;SDS011;64577;50.594;5.570;2022-11-27T20:54:06;6.65;;;2.03;;
75900;SDS011;64577;50.594;5.570;2022-11-27T20:56:33;10.77;;;2.40;;
75900;SDS011;64577;50.594;5.570;2022-11-27T20:58:58;6.85;;;2.20;;
75900;SDS011;64577;50.594;5.570;2022-11-27T21:01:26;5.18;;;2.13;;
75900;SDS011;64577;50.594;5.570;2022-11-27T21:03:57;8.48;;;2.20;;
75900;SDS011;64577;50.594;5.570;2022-11-27T21:06:26;5.93;;;2.20;;
75900;SDS011;64577;50.594;5.570;2022-11-27T21:08:53;8.73;;;2.30;;
75900;SDS011;64577;50.594;5.570;2022-11-27T21:11:20;8.48;;;2.20;;
75900;SDS011;64577;50.594;5.570;2022-11-27T21:13:57;9.13;;;2.20;;
75900;SDS011;64577;50.594;5.570;2022-11-27T21:16:28;7.47;;;2.10;;
75900;SDS011;64577;50.594;5.570;2022-11-27T21:18:57;5.70;;;2.00;;
75900;SDS011;64577;50.594;5.570;2022-11-27T21:21:23;9.68;;;2.35;;
75900;SDS011;64577;50.594;5.570;2022-11-27T21:23:49;7.05;;;2.08;;
75900;SDS011;64577;50.594;5.570;2022-11-27T21:26:15;7.10;;;1.95;;
75900;SDS011;64577;50.594;5.570;2022-11-27T21:28:40;7.15;;;2.28;;
75900;SDS011;64577;50.594;5.570;2022-11-27T21:31:10;6.57;;;2.35;;
75900;SDS011;64577;50.594;5.570;2022-11-27T21:36:06;5.70;;;2.15;;